Terminal Aerodrome Forecast
Issued by NWS

Home | Current Version | Previous Version | Text Only | Print | Product List | Glossary On
Versions: 1 2 3 4 5 6 7 8 9 10 11 12 13 14 15 16 17 18 19 20 21 22 23 24 25
000
FTAK31 PAJN 210807 AAB
TAFAPG
TAF AMD
PAPG 210807Z 2108/2206 VRB03KT P6SM -SHRA OVC030
     FM211000 00000KT 4SM -SHSNRA BR SCT020 OVC040
     FM211800 VRB03KT 5SM -SHSNRA OVC040
     FM220300 VRB03KT 4SM -SHSNRA OVC050
      AMD LTD TO CLD VIS AND WIND 2106/2115=

USA.gov is the U.S. government's official web portal to all federal, state and local government web resources and services.